Hovedside
METAR-TAF:

METAR-TAF

Lufthavner :

Sogndal lufthamn. Haukåsen

Sogndal, Norge

breddegrad: 61-09N, lengdegrad: 007-08E, høyde over havet: 49 m

Gjeldene værobservasjon

Denne rapporten ble laget for 27 minutter siden, klokken 10:50 UTC
Vind 10 kt fra Vest-sørvest
Temperatur -1°C
Luftfuktighet 86%
Trykk 1003 hPa
Sikt: 9000 m
Få skyer
Spredte skyer i en høyde av 1500 ft
Spredte skyer i en høyde av 3000 ft
regnbyger i nærheten

METAR: ENSG 241050Z 25010KT 9000 VCSH FEW/// SCT015 SCT030 M01/M03 Q1003 RMK WIND 3806FT 28025KT

Tid: 12:17 (11:17 UTC)


TAF: fraværende

Værobservasjoner og værvarsel for over 4000 flyplasser (METAR- og TAF-rapporter).

Tilgjengelige stasjoner er representert av de røde og gule prikkene på kartet.

Hold musepekeren over prikken for å se navnet på stasjonen.

Klikk så for å se værobservasjoner og -varsler.

For å forandre kartet kan du klikke på den grønne knappen med svart kryss for å zoome inn, på den grønne knappen med strek for å zoome ut, eller på de grønne pilene for å se tilstøtende kart.


METAR-TAF: